Time;durP1;ratioP1;P1;durP2;ratioP2;P2;SDS_P1;SDS_P2;PMS_P1;PMS_P2;Temp;Humidity;BMP_temperature;BMP_pressure;BME280_temperature;BME280_humidity;BME280_pressure;Samples;Min_cycle;Max_cycle;Signal;HPM_P1;HPM_P2
2023/04/24 00:01:29;;;;;;;;;;;11.80;90.30;;;;;;5046651;28;20026;-83
2023/04/24 00:03:59;;;;;;;5.15;3.05;;;11.80;90.60;;;;;;5046264;28;19941;-83
2023/04/24 00:06:32;;;;;;;7.25;2.70;;;11.80;91.10;;;;;;5029571;28;20059;-83
2023/04/24 00:09:02;;;;;;;19.63;3.10;;;11.80;91.80;;;;;;5031217;28;20021;-83
2023/04/24 00:11:27;;;;;;;10.02;4.07;;;11.70;92.60;;;;;;5045750;28;20026;-83
2023/04/24 00:13:53;;;;;;;;;;;11.60;93.40;;;;;;5031464;28;20024;-85
2023/04/24 00:16:19;;;;;;;6.20;3.17;;;11.50;94.60;;;;;;5048341;28;19909;-85
2023/04/24 00:18:44;;;;;;;;;;;11.30;95.70;;;;;;5065396;28;20186;-88
2023/04/24 00:21:11;;;;;;;9.40;3.58;;;11.30;96.90;;;;;;5048723;28;19905;-87
2023/04/24 00:23:36;;;;;;;;;;;11.20;97.50;;;;;;5032298;28;20482;-87
2023/04/24 00:26:02;;;;;;;19.20;5.43;;;11.20;97.70;;;;;;5048460;28;19959;-88
2023/04/24 00:28:28;;;;;;;;;;;11.20;97.60;;;;;;5033492;28;20017;-86
2023/04/24 00:30:54;;;;;;;15.57;6.03;;;11.30;97.90;;;;;;5048226;28;20286;-87
2023/04/24 00:33:19;;;;;;;;;;;11.20;97.70;;;;;;5032298;28;20034;-84
2023/04/24 00:35:45;;;;;;;10.90;5.47;;;11.20;98.80;;;;;;5047872;28;19955;-85
2023/04/24 00:38:11;;;;;;;;;;;11.10;98.80;;;;;;5031137;28;20452;-85
2023/04/24 00:40:36;;;;;;;19.63;7.65;;;11.10;99.20;;;;;;5047526;28;19913;-85
2023/04/24 00:43:02;;;;;;;;;;;11.00;99.60;;;;;;5031659;28;20552;-86
2023/04/24 00:45:28;;;;;;;21.00;6.25;;;10.90;99.90;;;;;;5047932;28;19936;-85
2023/04/24 00:47:53;;;;;;;;;;;10.80;99.90;;;;;;5031046;28;20025;-85
2023/04/24 00:50:21;;;;;;;10.95;4.55;;;10.90;99.90;;;;;;5048041;28;19916;-85
2023/04/24 00:52:47;;;;;;;13.35;3.88;;;11.00;99.90;;;;;;5034598;28;20025;-87
2023/04/24 00:55:12;;;;;;;;;;;11.30;98.70;;;;;;5035091;28;20025;-87
2023/04/24 00:57:38;;;;;;;11.13;3.00;;;11.60;97.00;;;;;;5049584;28;19940;-86
2023/04/24 01:00:05;;;;;;;;;;;11.70;94.60;;;;;;5034960;28;20516;-86
2023/04/24 01:02:34;;;;;;;7.50;3.47;;;11.90;93.30;;;;;;5051837;28;19905;-85
2023/04/24 01:05:00;;;;;;;9.80;3.28;;;12.30;91.30;;;;;;5035638;28;20037;-83
2023/04/24 01:07:26;;;;;;;13.35;3.42;;;12.60;89.90;;;;;;5034366;28;20022;-85
2023/04/24 01:09:52;;;;;;;;;;;12.60;87.30;;;;;;5035127;28;20025;-86
2023/04/24 01:12:19;;;;;;;8.07;3.00;;;12.70;85.90;;;;;;5036058;28;19912;-86
2023/04/24 01:14:45;;;;;;;8.73;3.42;;;12.70;87.80;;;;;;5034795;28;20037;-85
2023/04/24 01:17:11;;;;;;;;;;;12.70;86.30;;;;;;5051753;28;20025;-85
2023/04/24 01:19:38;;;;;;;8.30;2.87;;;12.80;85.30;;;;;;5053169;28;19935;-86
2023/04/24 01:22:10;;;;;;;10.68;3.33;;;12.80;84.00;;;;;;5035382;28;20029;-87
2023/04/24 01:24:36;;;;;;;6.78;2.97;;;12.90;84.20;;;;;;5036015;28;20030;-86
2023/04/24 01:27:02;;;;;;;5.30;3.05;;;12.80;84.80;;;;;;5036068;28;20030;-87
2023/04/24 01:29:27;;;;;;;;;;;12.70;86.40;;;;;;5035994;28;20371;-87
2023/04/24 01:31:54;;;;;;;5.72;2.95;;;12.50;89.10;;;;;;5052007;28;19952;-87
2023/04/24 01:34:20;;;;;;;9.77;3.53;;;12.30;91.10;;;;;;5035159;28;20036;-87
2023/04/24 01:36:46;;;;;;;;;;;12.10;92.30;;;;;;5035843;28;20017;-88
2023/04/24 01:39:13;;;;;;;11.55;3.25;;;11.90;94.90;;;;;;5052353;28;19935;-87
2023/04/24 01:41:38;;;;;;;12.55;3.35;;;11.70;95.70;;;;;;5038911;28;20667;-87
2023/04/24 01:44:04;;;;;;;;;;;11.60;96.40;;;;;;5036818;28;20097;-87
2023/04/24 01:46:31;;;;;;;9.05;3.50;;;11.50;96.60;;;;;;5051964;28;20444;-88
2023/04/24 01:48:59;;;;;;;6.68;3.30;;;11.50;96.90;;;;;;5035070;28;20129;-88
2023/04/24 01:51:25;;;;;;;7.40;3.15;;;11.50;97.30;;;;;;5034749;28;20113;-87
2023/04/24 01:53:50;;;;;;;;;;;11.40;98.10;;;;;;5035216;28;20045;-87
2023/04/24 01:56:17;;;;;;;6.30;3.53;;;11.30;99.00;;;;;;5051411;28;19917;-87
2023/04/24 01:58:43;;;;;;;13.50;4.50;;;11.40;98.30;;;;;;5034978;28;20038;-87
2023/04/24 02:01:15;;;;;;;10.25;4.00;;;11.40;98.20;;;;;;5034223;28;20449;-87
2023/04/24 02:03:40;;;;;;;9.07;4.18;;;11.40;98.40;;;;;;5034898;28;20041;-87
2023/04/24 02:06:06;;;;;;;;;;;11.40;98.70;;;;;;5034578;28;20064;-87
2023/04/24 02:08:32;;;;;;;16.48;4.05;;;11.40;99.00;;;;;;5051168;28;19909;-87
2023/04/24 02:10:57;;;;;;;;;;;11.40;99.60;;;;;;5035035;28;20022;-88
2023/04/24 02:13:23;;;;;;;13.38;3.95;;;11.30;99.90;;;;;;5052658;28;19912;-87
2023/04/24 02:15:48;;;;;;;;;;;11.30;99.90;;;;;;5034761;28;20029;-87
2023/04/24 02:18:15;;;;;;;11.13;4.15;;;11.30;99.90;;;;;;5052287;28;19905;-87
2023/04/24 02:20:41;;;;;;;10.73;4.15;;;11.30;99.90;;;;;;5034109;28;20034;-84
2023/04/24 02:23:06;;;;;;;;;;;11.30;99.90;;;;;;5034048;28;20124;-82
2023/04/24 02:25:33;;;;;;;9.85;3.63;;;11.30;99.90;;;;;;5050086;28;19912;-84
2023/04/24 02:27:59;;;;;;;7.82;3.30;;;11.30;99.90;;;;;;5033426;28;20022;-85
2023/04/24 02:30:24;;;;;;;;;;;11.40;99.90;;;;;;5034177;28;20160;-85
2023/04/24 02:32:50;;;;;;;9.23;4.50;;;11.40;99.90;;;;;;5050220;28;20361;-85
2023/04/24 02:35:16;;;;;;;;;;;11.40;99.90;;;;;;5033574;28;20037;-85
2023/04/24 02:37:41;;;;;;;8.52;4.15;;;11.40;99.90;;;;;;5050177;28;19912;-87
2023/04/24 02:40:07;;;;;;;;;;;11.40;99.90;;;;;;5034307;28;20041;-87
2023/04/24 02:42:33;;;;;;;12.52;4.00;;;11.40;99.90;;;;;;5050640;28;19905;-87
2023/04/24 02:44:59;;;;;;;;;;;11.40;99.90;;;;;;5034539;28;20032;-86
2023/04/24 02:47:24;;;;;;;10.18;3.78;;;11.40;99.90;;;;;;5050401;28;19905;-85
2023/04/24 02:49:50;;;;;;;;;;;11.30;99.90;;;;;;5034249;28;20036;-87
2023/04/24 02:52:16;;;;;;;11.80;3.92;;;11.30;99.90;;;;;;5050926;28;20007;-87
2023/04/24 02:54:42;;;;;;;9.75;3.67;;;11.20;99.90;;;;;;5035741;28;20038;-85
2023/04/24 02:57:08;;;;;;;8.48;3.47;;;11.30;99.90;;;;;;5033175;28;20037;-85
2023/04/24 02:59:33;;;;;;;;;;;11.30;99.90;;;;;;5033572;28;20046;-84
2023/04/24 03:01:59;;;;;;;6.78;3.65;;;11.20;99.90;;;;;;5049336;28;19940;-84
2023/04/24 03:04:25;;;;;;;;;;;11.10;99.90;;;;;;5033361;28;20034;-85
2023/04/24 03:06:54;;;;;;;7.07;3.30;;;11.10;99.90;;;;;;5049799;28;19905;-85
2023/04/24 03:09:23;;;;;;;12.45;3.70;;;11.00;99.90;;;;;;5033283;28;20398;-85
2023/04/24 03:11:49;;;;;;;9.57;4.03;;;11.00;99.90;;;;;;5032951;28;20018;-85
2023/04/24 03:14:15;;;;;;;7.03;3.20;;;11.20;99.90;;;;;;5031752;28;20112;-85
2023/04/24 03:16:41;;;;;;;8.00;3.72;;;11.10;99.90;;;;;;5032433;28;20117;-85
2023/04/24 03:19:07;;;;;;;;;;;11.20;99.90;;;;;;5032529;28;20144;-86
2023/04/24 03:21:33;;;;;;;13.05;3.30;;;11.30;99.90;;;;;;5047180;28;19905;-86
2023/04/24 03:23:58;;;;;;;6.88;3.22;;;11.30;99.90;;;;;;5032111;28;20026;-85
2023/04/24 03:26:24;;;;;;;;;;;11.30;99.90;;;;;;5065952;28;20135;-85
2023/04/24 03:28:50;;;;;;;11.35;4.18;;;11.30;99.90;;;;;;5049100;28;19909;-86
2023/04/24 03:31:16;;;;;;;;;;;11.30;99.90;;;;;;5032983;28;20025;-85
2023/04/24 03:33:42;;;;;;;6.57;3.13;;;11.40;99.90;;;;;;5049005;28;19909;-84
2023/04/24 03:36:07;;;;;;;;;;;11.40;99.90;;;;;;5033675;28;20084;-85
2023/04/24 03:38:33;;;;;;;10.63;3.60;;;11.40;99.90;;;;;;5048723;28;20016;-85
2023/04/24 03:40:59;;;;;;;;;;;11.60;99.90;;;;;;5032474;28;20496;-83
2023/04/24 03:43:24;;;;;;;8.02;3.50;;;11.70;99.90;;;;;;5048607;28;19905;-84
2023/04/24 03:45:50;;;;;;;;;;;11.90;99.90;;;;;;5031775;28;20040;-82
2023/04/24 03:48:16;;;;;;;9.75;4.05;;;11.90;99.90;;;;;;5047941;28;19906;-84
2023/04/24 03:50:41;;;;;;;;;;;12.10;99.90;;;;;;5031803;28;20501;-83
2023/04/24 03:53:07;;;;;;;10.15;4.20;;;12.20;99.30;;;;;;5047519;28;19995;-81
2023/04/24 03:55:33;;;;;;;13.00;4.15;;;12.30;98.70;;;;;;5032370;28;20038;-84
2023/04/24 03:57:59;;;;;;;;;;;12.30;98.60;;;;;;5032868;28;20053;-84
2023/04/24 04:00:26;;;;;;;12.07;4.10;;;12.40;98.00;;;;;;5048413;28;19983;-83
2023/04/24 04:02:51;;;;;;;;;;;12.40;97.70;;;;;;5031444;28;20482;-81
2023/04/24 04:05:17;;;;;;;10.05;4.10;;;12.40;98.40;;;;;;5032093;28;20587;-83
2023/04/24 04:07:42;;;;;;;;;;;12.40;98.10;;;;;;5031388;28;20036;-83
2023/04/24 04:10:08;;;;;;;11.27;4.63;;;12.50;97.70;;;;;;5031796;28;20388;-83
2023/04/24 04:12:34;;;;;;;;;;;12.70;97.10;;;;;;5030909;28;20018;-83
2023/04/24 04:15:00;;;;;;;5.85;3.47;;;12.60;97.30;;;;;;5047468;28;19913;-82
2023/04/24 04:17:25;;;;;;;;;;;12.60;97.70;;;;;;5032710;28;20100;-83
2023/04/24 04:19:51;;;;;;;10.20;3.95;;;12.60;97.60;;;;;;5047552;28;20012;-83
2023/04/24 04:22:16;;;;;;;;;;;12.70;97.40;;;;;;5030909;28;20040;-84
2023/04/24 04:24:42;;;;;;;10.13;3.47;;;12.80;97.40;;;;;;5047695;28;19912;-83
2023/04/24 04:27:08;;;;;;;;;;;12.90;97.30;;;;;;5033042;28;20374;-83
2023/04/24 04:29:34;;;;;;;8.10;3.85;;;13.10;96.20;;;;;;5048041;28;19905;-87
2023/04/24 04:32:01;;;;;;;6.93;3.60;;;13.30;95.10;;;;;;5031897;28;20110;-84
2023/04/24 04:34:26;;;;;;;6.55;3.97;;;13.20;95.40;;;;;;5031186;28;20040;-85
2023/04/24 04:36:54;;;;;;;;;;;13.20;95.20;;;;;;5031798;28;20033;-83
2023/04/24 04:39:20;;;;;;;7.60;4.78;;;13.20;96.00;;;;;;5048304;28;20010;-85
2023/04/24 04:41:48;;;;;;;;;;;13.20;95.40;;;;;;5031200;28;20513;-84
2023/04/24 04:44:14;;;;;;;6.82;3.95;;;13.20;95.90;;;;;;5032360;28;19912;-85
2023/04/24 04:46:41;;;;;;;;;;;13.30;95.30;;;;;;5031892;28;20034;-84
2023/04/24 04:49:08;;;;;;;8.75;4.20;;;13.30;95.00;;;;;;5047160;28;19916;-85
2023/04/24 04:51:34;;;;;;;8.48;4.32;;;13.40;95.30;;;;;;5030680;28;20029;-85
2023/04/24 04:54:00;;;;;;;7.65;3.83;;;13.60;94.60;;;;;;5030873;28;20044;-84
2023/04/24 04:56:26;;;;;;;;;;;13.50;94.60;;;;;;5031251;28;20053;-85
2023/04/24 04:58:51;;;;;;;7.15;4.00;;;13.60;94.10;;;;;;5064438;28;19960;-84
2023/04/24 05:01:17;;;;;;;;;;;13.60;94.40;;;;;;5031291;28;20060;-85
2023/04/24 05:03:43;;;;;;;10.85;4.32;;;13.50;94.20;;;;;;5047930;28;19905;-87
2023/04/24 05:06:08;;;;;;;;;;;13.40;95.30;;;;;;5033242;28;20037;-85
2023/04/24 05:08:34;;;;;;;10.20;5.40;;;13.40;95.50;;;;;;5048481;28;19913;-86
2023/04/24 05:11:00;;;;;;;;;;;13.40;95.30;;;;;;5033137;28;20049;-86
2023/04/24 05:13:26;;;;;;;8.25;4.75;;;13.20;96.10;;;;;;5048383;28;19920;-85
2023/04/24 05:15:51;;;;;;;;;;;13.10;97.20;;;;;;5031968;28;20124;-85
2023/04/24 05:18:17;;;;;;;11.77;4.65;;;13.00;98.10;;;;;;5048737;28;20374;-86
2023/04/24 05:20:43;;;;;;;;;;;12.90;99.90;;;;;;5033218;28;20399;-86
2023/04/24 05:23:09;;;;;;;13.15;5.32;;;12.80;99.90;;;;;;5049092;28;20305;-86
2023/04/24 05:25:35;;;;;;;15.43;5.03;;;12.70;99.90;;;;;;5032853;28;20033;-85
2023/04/24 05:28:01;;;;;;;;;;;12.60;99.90;;;;;;5032322;28;20029;-86
2023/04/24 05:30:27;;;;;;;9.32;4.85;;;12.60;99.90;;;;;;5048902;28;19905;-85
2023/04/24 05:32:53;;;;;;;;;;;12.60;99.90;;;;;;5032782;28;20030;-86
2023/04/24 05:35:19;;;;;;;11.13;5.47;;;12.40;99.90;;;;;;5051978;28;19905;-85
2023/04/24 05:37:44;;;;;;;;;;;12.30;99.90;;;;;;5036035;28;20025;-86
2023/04/24 05:40:10;;;;;;;9.90;5.22;;;12.10;99.90;;;;;;5050083;28;19922;-83
2023/04/24 05:42:36;;;;;;;;;;;12.00;99.90;;;;;;5031446;28;20030;-83
2023/04/24 05:45:02;;;;;;;9.70;5.20;;;11.80;99.90;;;;;;5048347;28;19909;-84
2023/04/24 05:47:28;;;;;;;9.00;5.65;;;11.70;99.90;;;;;;5032202;28;20085;-82
2023/04/24 05:49:53;;;;;;;;;;;11.70;99.90;;;;;;5032313;28;20033;-82
2023/04/24 05:52:19;;;;;;;11.80;5.65;;;11.80;99.90;;;;;;5033647;28;20016;-83
2023/04/24 05:54:45;;;;;;;;;;;11.80;99.90;;;;;;5033415;28;20040;-83
2023/04/24 05:57:10;;;;;;;9.70;5.57;;;11.90;99.90;;;;;;5048885;28;20393;-83
2023/04/24 05:59:37;;;;;;;;;;;11.90;99.90;;;;;;5033114;28;20449;-83
2023/04/24 06:02:03;;;;;;;11.73;5.93;;;11.90;99.90;;;;;;5049259;28;19951;-85
2023/04/24 06:04:29;;;;;;;;;;;11.90;99.90;;;;;;5032941;28;20033;-83
2023/04/24 06:06:55;;;;;;;15.23;11.27;;;12.00;99.90;;;;;;5047486;28;19905;-80
2023/04/24 06:09:22;;;;;;;17.85;10.52;;;12.00;99.90;;;;;;5032602;28;20025;-80
2023/04/24 06:11:48;;;;;;;9.32;6.38;;;12.10;99.90;;;;;;5047245;28;20022;-80
2023/04/24 06:14:14;;;;;;;8.52;6.10;;;12.20;99.90;;;;;;5030520;28;20033;-82
2023/04/24 06:16:43;;;;;;;;;;;12.20;99.90;;;;;;5031395;28;20112;-82
2023/04/24 06:19:09;;;;;;;15.25;8.00;;;12.30;99.90;;;;;;5047927;28;19917;-84
2023/04/24 06:21:34;;;;;;;;;;;12.30;99.90;;;;;;5032731;28;20025;-84
2023/04/24 06:24:00;;;;;;;12.05;6.07;;;12.40;99.90;;;;;;5047490;28;19913;-82
2023/04/24 06:26:26;;;;;;;;;;;12.60;99.90;;;;;;5033439;28;20021;-82
2023/04/24 06:28:53;;;;;;;18.13;8.85;;;12.60;99.90;;;;;;5048878;28;20011;-82
2023/04/24 06:31:20;;;;;;;15.07;7.40;;;12.60;99.90;;;;;;5032667;28;20029;-85
2023/04/24 06:33:45;;;;;;;13.73;6.05;;;12.60;99.90;;;;;;5031661;28;20028;-85
2023/04/24 06:36:11;;;;;;;;;;;12.60;99.90;;;;;;5033487;28;20025;-84
2023/04/24 06:38:37;;;;;;;15.13;6.25;;;12.50;99.90;;;;;;5049335;28;19948;-85
2023/04/24 06:41:04;;;;;;;;;;;12.50;99.90;;;;;;5033715;28;20477;-85
2023/04/24 06:43:31;;;;;;;10.15;5.43;;;12.60;99.90;;;;;;5049969;28;19916;-84
2023/04/24 06:45:58;;;;;;;12.25;5.18;;;12.70;99.90;;;;;;5031933;28;20034;-84
2023/04/24 06:48:25;;;;;;;6.57;5.05;;;12.80;99.90;;;;;;5031987;28;20024;-85
2023/04/24 06:50:50;;;;;;;9.30;4.65;;;12.90;99.90;;;;;;5032948;28;20025;-84
2023/04/24 06:53:16;;;;;;;;;;;12.90;99.90;;;;;;5034654;28;20033;-85
2023/04/24 06:55:44;;;;;;;9.02;5.30;;;13.00;99.90;;;;;;5048870;28;19919;-85
2023/04/24 06:58:10;;;;;;;9.18;5.68;;;13.10;99.90;;;;;;5031843;28;20080;-85
2023/04/24 07:00:36;;;;;;;11.00;6.03;;;13.40;99.90;;;;;;5032200;28;20490;-85
2023/04/24 07:03:02;;;;;;;;;;;13.60;99.90;;;;;;5032185;28;20057;-85
2023/04/24 07:05:29;;;;;;;14.07;6.93;;;13.70;99.90;;;;;;5048436;28;19963;-83
2023/04/24 07:07:54;;;;;;;7.63;4.75;;;13.80;99.90;;;;;;5032135;28;20581;-86
2023/04/24 07:10:21;;;;;;;;;;;14.20;99.90;;;;;;5033486;28;20074;-84
2023/04/24 07:12:47;;;;;;;9.07;4.18;;;14.60;99.90;;;;;;5048410;28;20393;-85
2023/04/24 07:15:12;;;;;;;8.20;4.72;;;15.00;99.90;;;;;;5031819;28;20025;-84
2023/04/24 07:17:38;;;;;;;;;;;15.50;97.00;;;;;;5033540;28;20502;-85
2023/04/24 07:20:05;;;;;;;8.50;4.40;;;15.50;95.90;;;;;;5049107;28;19913;-85
2023/04/24 07:22:31;;;;;;;12.20;4.75;;;15.30;96.50;;;;;;5031639;28;20021;-84
2023/04/24 07:24:56;;;;;;;;;;;15.20;98.40;;;;;;5031499;28;20036;-85
2023/04/24 07:27:22;;;;;;;13.23;4.90;;;15.10;96.30;;;;;;5048973;28;19909;-86
2023/04/24 07:29:48;;;;;;;11.48;5.07;;;14.90;98.00;;;;;;5032417;28;20036;-85
2023/04/24 07:32:14;;;;;;;8.85;4.40;;;14.70;98.10;;;;;;5031089;28;20061;-85
2023/04/24 07:34:40;;;;;;;;;;;14.50;99.80;;;;;;5032505;28;20057;-85
2023/04/24 07:37:06;;;;;;;16.60;4.97;;;14.30;99.90;;;;;;5048910;28;20373;-86
2023/04/24 07:39:31;;;;;;;;;;;14.00;99.90;;;;;;5032537;28;20435;-85
2023/04/24 07:41:58;;;;;;;11.20;4.95;;;13.90;99.90;;;;;;5047067;28;19905;-84
2023/04/24 07:44:24;;;;;;;10.25;5.10;;;13.80;99.90;;;;;;5031963;28;20128;-85
2023/04/24 07:46:50;;;;;;;;;;;13.80;99.90;;;;;;5031772;28;20060;-84
2023/04/24 07:49:16;;;;;;;11.70;5.43;;;13.80;99.90;;;;;;5048033;28;19941;-85
2023/04/24 07:51:41;;;;;;;;;;;13.80;99.90;;;;;;5031759;28;20075;-85
2023/04/24 07:54:07;;;;;;;10.13;4.75;;;13.50;99.90;;;;;;5047887;28;20000;-84
2023/04/24 07:56:33;;;;;;;;;;;13.40;99.90;;;;;;5031513;28;20053;-85
2023/04/24 07:58:59;;;;;;;9.40;5.15;;;13.40;99.90;;;;;;5031906;28;19917;-85
2023/04/24 08:01:25;;;;;;;8.95;5.82;;;13.20;99.90;;;;;;5030464;28;20025;-85
2023/04/24 08:03:51;;;;;;;;;;;13.10;99.90;;;;;;5031092;28;20068;-85
2023/04/24 08:06:17;;;;;;;13.50;5.95;;;13.20;99.90;;;;;;5045288;28;20377;-85
2023/04/24 08:08:42;;;;;;;;;;;13.20;99.90;;;;;;5030667;28;20398;-85
2023/04/24 08:11:08;;;;;;;12.38;5.65;;;13.00;99.90;;;;;;5047655;28;20250;-84
2023/04/24 08:13:33;;;;;;;;;;;13.20;99.90;;;;;;5031785;28;20405;-84
2023/04/24 08:15:59;;;;;;;8.45;6.22;;;13.20;99.90;;;;;;5048281;28;20019;-83
2023/04/24 08:18:25;;;;;;;;;;;13.40;99.90;;;;;;5031630;28;20097;-85
2023/04/24 08:20:50;;;;;;;15.73;6.22;;;13.30;99.90;;;;;;5047346;28;19921;-85
2023/04/24 08:23:16;;;;;;;;;;;13.40;99.90;;;;;;5031267;28;20064;-85
2023/04/24 08:25:42;;;;;;;10.15;5.22;;;13.70;99.90;;;;;;5046645;28;20365;-86
2023/04/24 08:28:08;;;;;;;;;;;13.70;99.90;;;;;;5031702;28;20072;-84
2023/04/24 08:30:34;;;;;;;11.57;5.43;;;13.70;99.90;;;;;;5046733;28;19905;-84
2023/04/24 08:33:00;;;;;;;;;;;13.90;99.90;;;;;;5031094;28;20044;-85
2023/04/24 08:35:25;;;;;;;10.13;5.60;;;13.90;99.90;;;;;;5031523;28;19909;-85
2023/04/24 08:37:52;;;;;;;;;;;13.90;99.90;;;;;;5031424;28;20025;-85
2023/04/24 08:40:18;;;;;;;7.80;5.90;;;13.80;99.90;;;;;;5047286;28;19917;-85
2023/04/24 08:42:44;;;;;;;;;;;13.60;99.90;;;;;;5031016;28;20025;-84
2023/04/24 08:45:11;;;;;;;24.92;13.27;;;13.50;99.90;;;;;;5046740;28;19905;-85
2023/04/24 08:47:39;;;;;;;29.73;16.33;;;13.60;99.90;;;;;;5046438;28;20041;-83
2023/04/24 08:50:07;;;;;;;20.08;8.80;;;13.60;99.90;;;;;;5046645;28;20033;-84
2023/04/24 08:52:33;;;;;;;15.32;10.20;;;13.30;99.90;;;;;;5030079;28;20026;-85
2023/04/24 08:55:01;;;;;;;16.30;10.88;;;13.00;99.90;;;;;;5046670;28;20128;-83
2023/04/24 08:57:27;;;;;;;17.08;12.05;;;12.80;99.90;;;;;;5046742;28;20045;-84
2023/04/24 08:59:54;;;;;;;14.27;8.25;;;12.70;99.90;;;;;;5031293;28;20501;-84
2023/04/24 09:02:21;;;;;;;17.92;9.15;;;12.60;99.90;;;;;;5029991;28;20029;-83
2023/04/24 09:04:47;;;;;;;24.63;10.07;;;12.60;99.90;;;;;;5030076;28;20124;-82
2023/04/24 09:07:16;;;;;;;16.65;8.60;;;12.70;99.90;;;;;;5046466;28;20060;-85
2023/04/24 09:09:42;;;;;;;13.27;8.05;;;12.60;99.90;;;;;;5030137;28;20053;-84
2023/04/24 09:12:09;;;;;;;;;;;12.70;99.90;;;;;;5032985;28;20060;-84
2023/04/24 09:14:38;;;;;;;13.02;6.88;;;12.80;99.90;;;;;;5050968;28;19955;-84
2023/04/24 09:17:05;;;;;;;15.73;9.05;;;12.80;99.90;;;;;;5033997;28;20091;-84
2023/04/24 09:19:31;;;;;;;24.55;9.75;;;12.80;99.90;;;;;;5033804;28;20037;-83
2023/04/24 09:21:57;;;;;;;;;;;13.00;99.90;;;;;;5035356;28;20463;-84
2023/04/24 09:24:23;;;;;;;15.95;8.45;;;13.10;99.90;;;;;;5035551;28;19905;-84
2023/04/24 09:26:49;;;;;;;;;;;13.30;99.90;;;;;;5035711;28;20033;-83
2023/04/24 09:29:18;;;;;;;9.93;8.30;;;13.40;99.90;;;;;;5050698;28;20365;-84
2023/04/24 09:31:45;;;;;;;17.92;11.77;;;13.50;99.90;;;;;;5035136;28;20147;-85
2023/04/24 09:34:11;;;;;;;18.10;9.45;;;13.60;99.90;;;;;;5049454;28;20063;-84
2023/04/24 09:36:42;;;;;;;14.32;9.82;;;13.60;99.90;;;;;;5033674;28;20022;-85
2023/04/24 09:39:13;;;;;;;14.32;9.23;;;13.70;99.90;;;;;;5033870;28;20029;-85
2023/04/24 09:41:47;;;;;;;17.45;8.75;;;14.00;99.90;;;;;;5033592;28;20033;-85
2023/04/24 09:44:25;;;;;;;20.13;9.13;;;14.20;99.90;;;;;;5034874;28;20105;-85
2023/04/24 09:46:55;;;;;;;14.93;8.25;;;14.50;99.90;;;;;;5034515;28;20034;-84
2023/04/24 09:49:26;;;;;;;12.90;7.85;;;15.00;99.90;;;;;;5034727;28;20053;-85
2023/04/24 09:52:01;;;;;;;12.77;7.00;;;15.30;99.90;;;;;;5033211;28;20480;-85
2023/04/24 09:54:27;;;;;;;13.80;6.13;;;15.40;99.90;;;;;;5033719;28;20030;-86
2023/04/24 09:56:54;;;;;;;;;;;15.60;99.90;;;;;;5033409;28;20292;-86
2023/04/24 09:59:20;;;;;;;;;;;15.80;99.90;;;;;;5049228;28;20015;-84
2023/04/24 10:01:48;;;;;;;9.20;6.18;;;15.70;99.90;;;;;;5048072;28;20699;-85
2023/04/24 10:04:26;;;;;;;14.82;7.13;;;15.70;99.90;;;;;;5032356;28;20087;-84
2023/04/24 10:06:54;;;;;;;16.38;7.75;;;15.50;99.90;;;;;;5033144;28;20036;-84
2023/04/24 10:09:21;;;;;;;13.95;7.65;;;15.10;99.90;;;;;;5066426;28;20040;-84
2023/04/24 10:11:49;;;;;;;16.05;8.73;;;14.90;99.90;;;;;;5034160;28;20409;-85
2023/04/24 10:14:26;;;;;;;13.07;7.60;;;14.90;99.90;;;;;;5033454;28;20116;-83
2023/04/24 10:16:54;;;;;;;10.02;6.47;;;14.80;99.90;;;;;;5031704;28;20056;-84
2023/04/24 10:19:20;;;;;;;13.38;8.23;;;14.70;99.90;;;;;;5033122;28;20033;-84
2023/04/24 10:21:46;;;;;;;;;;;14.70;99.90;;;;;;5033029;28;20532;-85
2023/04/24 10:24:17;;;;;;;10.95;6.88;;;14.60;99.90;;;;;;5049199;28;19905;-85
2023/04/24 10:26:44;;;;;;;13.27;7.18;;;14.40;99.90;;;;;;5032248;28;20030;-85
2023/04/24 10:29:12;;;;;;;9.48;6.65;;;14.30;99.90;;;;;;5030822;28;20117;-85
2023/04/24 10:31:38;;;;;;;11.85;8.63;;;14.20;99.90;;;;;;5032651;28;20026;-85
2023/04/24 10:34:09;;;;;;;12.52;8.23;;;14.10;99.90;;;;;;5032729;28;20035;-85
2023/04/24 10:36:37;;;;;;;13.93;8.75;;;14.10;99.90;;;;;;5032527;28;20436;-84
2023/04/24 10:39:06;;;;;;;12.88;8.13;;;14.20;99.90;;;;;;5032917;28;20029;-84
2023/04/24 10:41:32;;;;;;;14.82;8.32;;;14.30;99.90;;;;;;5032538;28;20033;-84
2023/04/24 10:44:07;;;;;;;;;;;14.60;99.90;;;;;;5032572;28;20028;-84
2023/04/24 10:46:33;;;;;;;13.98;8.30;;;14.70;99.90;;;;;;5048923;28;19905;-84
2023/04/24 10:48:59;;;;;;;;;;;14.60;99.90;;;;;;5031493;28;20033;-84
2023/04/24 10:51:45;;;;;;;16.15;10.23;;;14.60;99.90;;;;;;5032713;28;19905;-82
2023/04/24 10:54:34;;;;;;;24.07;8.80;;;14.80;99.90;;;;;;5047691;28;20051;-84
2023/04/24 10:57:29;;;;;;;16.65;9.57;;;14.80;99.90;;;;;;5030221;28;20299;-83
2023/04/24 11:00:15;;;;;;;11.43;9.23;;;15.00;99.90;;;;;;5065640;28;20146;-85
2023/04/24 11:02:49;;;;;;;11.13;8.88;;;15.20;99.90;;;;;;5032724;28;20021;-85
2023/04/24 11:05:19;;;;;;;12.10;9.48;;;15.20;99.90;;;;;;5031610;28;20055;-85
2023/04/24 11:08:10;;;;;;;17.63;11.18;;;15.60;99.90;;;;;;5031594;28;20083;-83
2023/04/24 11:10:54;;;;;;;15.10;10.77;;;15.60;99.90;;;;;;5064945;28;20052;-83
2023/04/24 11:13:48;;;;;;;17.80;10.48;;;15.70;99.90;;;;;;5046804;28;20033;-83
2023/04/24 11:16:35;;;;;;;15.32;10.27;;;15.90;99.90;;;;;;5047316;28;20029;-85
2023/04/24 11:19:09;;;;;;;19.75;10.70;;;15.70;99.90;;;;;;5032386;28;20486;-85
2023/04/24 11:21:42;;;;;;;16.27;11.38;;;15.60;99.90;;;;;;5048054;28;20034;-84
2023/04/24 11:24:30;;;;;;;15.00;12.20;;;15.80;99.90;;;;;;5048020;28;20021;-84
2023/04/24 11:27:09;;;;;;;19.80;14.95;;;15.70;99.90;;;;;;5047862;28;20022;-85
2023/04/24 11:29:43;;;;;;;14.52;11.18;;;15.70;99.90;;;;;;5032583;28;20076;-84
2023/04/24 11:32:19;;;;;;;13.60;10.48;;;15.80;99.90;;;;;;5046590;28;20049;-83
2023/04/24 11:34:47;;;;;;;14.52;11.27;;;15.80;99.90;;;;;;5046445;28;20033;-84
2023/04/24 11:37:13;;;;;;;12.73;9.32;;;15.60;99.90;;;;;;5047162;28;20034;-83
2023/04/24 11:39:43;;;;;;;14.93;10.75;;;15.60;99.90;;;;;;5030184;28;20068;-84
2023/04/24 11:42:09;;;;;;;15.57;10.70;;;15.50;99.90;;;;;;5045837;28;20080;-83
2023/04/24 11:44:38;;;;;;;18.73;11.60;;;15.50;99.90;;;;;;5031651;28;20018;-83
2023/04/24 11:47:08;;;;;;;58.63;40.08;;;15.50;99.90;;;;;;5046792;28;20151;-84
2023/04/24 11:49:36;;;;;;;36.85;26.98;;;15.60;99.90;;;;;;5031370;28;20037;-85
2023/04/24 11:52:02;;;;;;;18.05;11.70;;;15.70;99.90;;;;;;5029612;28;20033;-84
2023/04/24 11:54:28;;;;;;;13.27;9.18;;;15.90;99.90;;;;;;5031655;28;20026;-85
2023/04/24 11:56:54;;;;;;;9.88;8.25;;;16.00;99.90;;;;;;5029771;28;20057;-83
2023/04/24 11:59:19;;;;;;;14.65;10.57;;;16.10;99.90;;;;;;5029029;28;20029;-83
2023/04/24 12:01:46;;;;;;;20.33;11.27;;;16.40;99.90;;;;;;5046230;28;20032;-84
2023/04/24 12:04:13;;;;;;;16.60;10.02;;;16.50;99.90;;;;;;5046095;28;20022;-84
2023/04/24 12:06:39;;;;;;;14.02;10.70;;;16.50;99.90;;;;;;5047282;28;20033;-85
2023/04/24 12:09:05;;;;;;;15.98;11.38;;;16.60;99.90;;;;;;5047245;28;20429;-84
2023/04/24 12:11:30;;;;;;;16.45;10.95;;;16.60;99.90;;;;;;5046671;28;20125;-85
2023/04/24 12:13:56;;;;;;;13.45;9.65;;;16.80;99.90;;;;;;5031056;28;20021;-84
2023/04/24 12:16:22;;;;;;;12.02;9.82;;;16.90;99.90;;;;;;5030464;28;20029;-84
2023/04/24 12:18:50;;;;;;;13.68;9.77;;;16.90;99.90;;;;;;5030201;28;20033;-84
2023/04/24 12:21:21;;;;;;;23.08;10.93;;;17.10;99.90;;;;;;5029677;28;20026;-85
2023/04/24 12:23:47;;;;;;;14.95;10.05;;;17.10;99.90;;;;;;5047307;28;20033;-85
2023/04/24 12:26:20;;;;;;;19.75;10.07;;;17.20;99.90;;;;;;5047148;28;20048;-85
2023/04/24 12:28:51;;;;;;;20.40;9.73;;;17.20;99.90;;;;;;5046756;28;20040;-84
2023/04/24 12:31:17;;;;;;;19.80;9.68;;;17.30;99.90;;;;;;5030298;28;20029;-85
2023/04/24 12:33:43;;;;;;;15.20;12.27;;;17.20;99.90;;;;;;5029998;28;20025;-85
2023/04/24 12:36:12;;;;;;;17.48;11.20;;;17.30;99.90;;;;;;5046572;28;20029;-84
2023/04/24 12:38:41;;;;;;;20.92;11.38;;;17.30;99.90;;;;;;5046649;28;20035;-84
2023/04/24 12:41:12;;;;;;;16.27;12.90;;;17.00;99.90;;;;;;5031177;28;20042;-85
2023/04/24 12:43:38;;;;;;;18.85;12.77;;;17.10;99.90;;;;;;5046496;28;20033;-85
2023/04/24 12:46:04;;;;;;;18.13;12.90;;;17.10;99.90;;;;;;5046284;28;20030;-84
2023/04/24 12:48:31;;;;;;;15.80;11.60;;;17.20;99.90;;;;;;5046228;28;20025;-85
2023/04/24 12:51:03;;;;;;;16.90;11.18;;;17.30;99.90;;;;;;5045083;28;20025;-84
2023/04/24 12:53:31;;;;;;;12.32;11.02;;;17.50;99.90;;;;;;5044950;28;20025;-85
2023/04/24 12:55:57;;;;;;;16.88;10.50;;;17.40;99.90;;;;;;5046105;28;20044;-85
2023/04/24 12:58:23;;;;;;;22.27;15.25;;;17.10;99.90;;;;;;5047183;28;20468;-85
2023/04/24 13:00:49;;;;;;;19.88;12.27;;;17.20;99.90;;;;;;5064212;28;20042;-83
2023/04/24 13:03:15;;;;;;;16.10;13.13;;;17.30;99.90;;;;;;5047135;28;20025;-85